Latest Weather Observations for Bougainville Reef

IDQ60801

Issued at 8:42 pm EST Saturday 23 February 2019 (issued every 10 minutes, with the page automatically refreshed every 10 minutes)

About weather observations | Map of weather stations | Latest weather observations for QLD | Other Formats
Station Details ID: 200840 Name: BOUGAINVILLE REEF Lat: -15.49 Lon: 147.12 Height: 0.0 m
Data from the previous 72 hours. | See also: Recent months for locations in Queensland
Date/Time
EST
Temp
°C
App
Temp
°C
Dew
Point
°C
Rel
Hum
%
Delta-T
°C
Wind Press
QNH
hPa
Press
MSL
hPa
Rain since
9am
mm
Dir  Spd
km/h
Gust
km/h
Spd
kts
Gust
kts
23/08:30pm - - - - - SE 26 30 14 16 1010.5 - -
23/08:00pm - - - - - ESE 28 32 15 17 1010.2 1010.1 -
23/07:30pm - - - - - ESE 30 33 16 18 1009.9 - -
23/07:00pm - - - - - SE 30 33 16 18 1009.5 1009.3 -
23/06:30pm - - - - - SE 28 32 15 17 1009.0 - -
23/06:00pm - - - - - SE 26 32 14 17 1008.7 1008.6 -
23/05:30pm - - - - - SE 24 28 13 15 1008.5 - -
23/05:00pm - - - - - SE 26 26 14 14 1008.4 1008.3 -
23/04:30pm - - - - - SE 22 24 12 13 1008.2 - -
23/04:00pm - - - - - SSE 19 28 10 15 1008.2 1008.3 -
23/03:30pm - - - - - ESE 20 26 11 14 1008.1 - -
23/03:00pm - - - - - ESE 11 17 6 9 1008.4 1008.4 -
23/02:30pm - - - - - E 11 15 6 8 1008.5 - -
23/02:00pm - - - - - ESE 13 15 7 8 1008.7 1008.7 -
23/01:30pm - - - - - S 4 9 2 5 1008.9 - -
23/01:00pm - - - - - CALM 0 0 0 0 1009.2 1009.3 -
23/12:30pm - - - - - S 24 43 13 23 1009.5 - -
23/12:26pm - - - - - SE 28 39 15 21 1009.3 - -
23/12:00pm - - - - - ENE 9 9 5 5 1009.6 1009.5 -
23/11:30am - - - - - E 9 11 5 6 1009.5 - -
23/11:00am - - - - - NE 11 11 6 6 1009.7 1009.6 -
23/10:30am - - - - - NE 11 13 6 7 1010.0 - -
23/10:00am - - - - - ENE 13 15 7 8 1010.1 1010.1 -
23/09:30am - - - - - ENE 13 15 7 8 1010.2 - -
23/09:00am - - - - - E 13 15 7 8 1010.0 1009.8 -
23/08:30am - - - - - E 13 15 7 8 1009.8 - -
23/08:00am - - - - - E 13 17 7 9 1009.6 1009.3 -
23/07:30am - - - - - ESE 11 13 6 7 1009.1 - -
23/07:00am - - - - - E 11 13 6 7 1008.9 1008.8 -
23/06:30am - - - - - E 9 13 5 7 1008.6 - -
23/06:00am - - - - - SSE 9 13 5 7 1008.4 1008.3 -
23/05:30am - - - - - SE 9 11 5 6 1008.1 - -
23/05:00am - - - - - E 11 11 6 6 1007.9 1007.9 -
23/04:30am - - - - - SE 11 13 6 7 1007.7 - -
23/04:00am - - - - - SE 9 11 5 6 1007.7 1007.7 -
23/03:30am - - - - - SSE 7 11 4 6 1007.5 - -
23/03:00am - - - - - CALM 0 0 0 0 1007.5 1007.5 -
23/02:30am - - - - - SSW 4 7 2 4 1007.7 - -
23/02:00am - - - - - SW 6 7 3 4 1008.1 1008.1 -
23/01:30am - - - - - WSW 7 9 4 5 1008.2 - -
23/01:00am - - - - - SW 6 6 3 3 1008.3 1008.4 -
23/12:30am - - - - - WSW 6 7 3 4 1008.4 - -
23/12:00am - - - - - WSW 7 11 4 6 1008.6 1008.7 -
 
Date/Time
EST
Temp
°C
App
Temp
°C
Dew
Point
°C
Rel
Hum
%
Delta-T
°C
Wind Press
QNH
hPa
Press
MSL
hPa
Rain since
9am
mm
Dir  Spd
km/h
Gust
km/h
Spd
kts
Gust
kts
22/11:30pm - - - - - WSW 7 9 4 5 1008.6 - -
22/11:00pm - - - - - WNW 15 17 8 9 1008.5 1008.4 -
22/10:30pm - - - - - WNW 13 13 7 7 1008.5 - -
22/10:00pm - - - - - NW 13 15 7 8 1008.2 1008.2 -
22/09:30pm - - - - - NW 13 17 7 9 1008.1 - -
22/09:00pm - - - - - NW 13 17 7 9 1007.8 1007.8 -
22/08:30pm - - - - - NW 15 17 8 9 1007.7 - -
22/08:00pm - - - - - NW 19 22 10 12 1007.3 1007.2 -
22/07:30pm - - - - - NW 19 22 10 12 1006.8 - -
22/07:00pm - - - - - NW 20 24 11 13 1006.4 1006.3 -
22/06:30pm - - - - - NW 20 24 11 13 1006.0 - -
22/06:00pm - - - - - NW 26 28 14 15 1006.0 1005.9 -
22/05:30pm - - - - - NW 30 33 16 18 1005.7 - -
22/05:00pm - - - - - NW 30 33 16 18 1005.6 1005.4 -
22/04:30pm - - - - - NW 32 37 17 20 1005.1 - -
22/04:00pm - - - - - NW 35 39 19 21 1004.9 1005.0 -
22/03:30pm - - - - - NW 33 37 18 20 1005.2 - -
22/03:00pm - - - - - NW 35 41 19 22 1005.6 1005.6 -
22/02:30pm - - - - - NW 37 43 20 23 1005.8 - -
22/02:00pm - - - - - NW 28 37 15 20 1006.0 1006.0 -
22/01:30pm - - - - - NW 26 30 14 16 1005.9 - -
22/01:00pm - - - - - WNW 20 24 11 13 1006.2 1006.2 -
22/12:30pm - - - - - WNW 24 26 13 14 1006.2 - -
22/12:00pm - - - - - WNW 26 30 14 16 1006.5 1006.6 -
22/11:30am - - - - - WNW 26 30 14 16 1006.7 - -
22/11:00am - - - - - WNW 26 32 14 17 1006.8 1006.8 -
22/10:30am - - - - - WNW 28 32 15 17 1006.9 - -
22/10:00am - - - - - WNW 24 30 13 16 1006.8 1006.7 -
22/09:30am - - - - - WNW 28 32 15 17 1006.9 - -
22/09:00am - - - - - WNW 20 26 11 14 1006.6 1006.7 -
22/08:30am - - - - - WNW 24 26 13 14 1006.5 - -
22/08:00am - - - - - WNW 28 32 15 17 1006.2 1006.1 -
22/07:30am - - - - - WNW 30 35 16 19 1005.7 - -
22/07:00am - - - - - WNW 26 35 14 19 1004.9 1004.9 -
22/06:30am - - - - - NW 26 30 14 16 1004.6 - -
22/06:00am - - - - - NW 24 30 13 16 1004.4 1004.4 -
22/05:30am - - - - - NW 26 30 14 16 1004.4 - -
22/05:00am - - - - - NNW 20 26 11 14 1004.3 1004.3 -
22/04:30am - - - - - NNW 22 26 12 14 1004.1 - -
22/04:00am - - - - - NW 28 33 15 18 1004.0 1003.7 -
22/03:30am - - - - - NW 32 37 17 20 1003.8 - -
22/03:00am - - - - - NW 33 35 18 19 1004.2 1004.0 -
22/02:30am - - - - - NW 33 39 18 21 1004.0 - -
22/02:00am - - - - - NW 26 35 14 19 1004.2 1004.5 -
22/01:30am - - - - - N 28 32 15 17 1005.0 - -
22/01:00am - - - - - N 32 33 17 18 1005.4 1005.8 -
22/12:30am - - - - - N 22 52 12 28 1005.8 - -
22/12:00am - - - - - N 20 26 11 14 1006.0 1006.0 -
 
Date/Time
EST
Temp
°C
App
Temp
°C
Dew
Point
°C
Rel
Hum
%
Delta-T
°C
Wind Press
QNH
hPa
Press
MSL
hPa
Rain since
9am
mm
Dir  Spd
km/h
Gust
km/h
Spd
kts
Gust
kts
21/11:30pm - - - - - NNW 19 22 10 12 1006.1 - -
21/11:00pm - - - - - NNW 22 26 12 14 1006.1 1006.1 -
21/10:30pm - - - - - NNW 24 26 13 14 1006.1 - -
21/10:00pm - - - - - NNW 26 30 14 16 1006.2 1006.2 -
21/09:30pm - - - - - NNW 26 30 14 16 1006.1 - -
21/09:00pm - - - - - NNW 30 35 16 19 1005.9 1005.7 -
21/08:30pm - - - - - NNW 30 33 16 18 1005.3 - -
21/08:00pm - - - - - NNW 28 32 15 17 1005.1 1005.0 -
21/07:30pm - - - - - NNW 26 32 14 17 1004.8 - -
21/07:00pm - - - - - NW 28 32 15 17 1004.4 1004.3 -
21/06:30pm - - - - - NW 28 32 15 17 1004.1 - -
21/06:00pm - - - - - NW 28 33 15 18 1003.9 1003.9 -
21/05:30pm - - - - - NW 30 35 16 19 1003.8 - -
21/05:00pm - - - - - NW 30 35 16 19 1003.6 1003.5 -
21/04:30pm - - - - - NW 30 35 16 19 1003.4 - -
21/04:00pm - - - - - WNW 28 30 15 16 1003.4 1003.4 -
21/03:30pm - - - - - WNW 30 32 16 17 1003.7 - -
21/03:00pm - - - - - WNW 32 33 17 18 1004.0 1004.0 -
21/02:30pm - - - - - WNW 30 35 16 19 1004.3 - -
21/02:00pm - - - - - WNW 32 33 17 18 1004.6 1004.8 -
21/01:30pm - - - - - WNW 30 33 16 18 1005.1 - -
21/01:00pm - - - - - WNW 32 35 17 19 1005.6 1005.9 -
21/12:30pm - - - - - WNW 30 35 16 19 1006.2 - -
21/12:00pm - - - - - W 30 32 16 17 1006.5 1006.5 -
21/11:30am - - - - - W 28 32 15 17 1006.7 - -
21/11:00am - - - - - WNW 28 33 15 18 1006.9 1007.0 -
21/10:30am - - - - - W 26 32 14 17 1007.0 - -
21/10:00am - - - - - W 28 30 15 16 1007.1 1007.0 -
21/09:30am - - - - - W 28 33 15 18 1007.1 - -
21/09:00am - - - - - W 33 37 18 20 1006.9 1006.7 -
21/08:30am - - - - - W 32 39 17 21 1006.7 - -
21/08:00am - - - - - W 32 35 17 19 1006.4 1006.4 -
21/07:30am - - - - - W 30 33 16 18 1006.3 - -
21/07:00am - - - - - WNW 32 35 17 19 1005.9 1005.8 -
21/06:30am - - - - - WNW 30 33 16 18 1005.6 - -
21/06:00am - - - - - WNW 30 35 16 19 1005.1 1005.0 -
21/05:30am - - - - - WNW 30 33 16 18 1004.8 - -
21/05:00am - - - - - NW 30 33 16 18 1004.4 1004.3 -
21/04:30am - - - - - NW 30 33 16 18 1004.3 - -
21/04:00am - - - - - WNW 30 35 16 19 1004.1 1004.0 -
21/03:30am - - - - - WNW 28 32 15 17 1004.0 - -
21/03:00am - - - - - WNW 28 30 15 16 1003.9 1004.0 -
21/02:30am - - - - - WNW 28 32 15 17 1004.1 - -
21/02:00am - - - - - WNW 28 32 15 17 1004.3 1004.4 -
21/01:30am - - - - - WNW 26 30 14 16 1004.7 - -
21/01:00am - - - - - WNW 24 28 13 15 1004.9 1005.0 -
21/12:30am - - - - - WNW 24 28 13 15 1005.2 - -
21/12:00am - - - - - NW 24 26 13 14 1005.6 1005.8 -
 
Date/Time
EST
Temp
°C
App
Temp
°C
Dew
Point
°C
Rel
Hum
%
Delta-T
°C
Wind Press
QNH
hPa
Press
MSL
hPa
Rain since
9am
mm
Dir  Spd
km/h
Gust
km/h
Spd
kts
Gust
kts
20/11:30pm - - - - - NW 22 26 12 14 1005.9 - -
20/11:00pm - - - - - NW 24 26 13 14 1006.2 1006.2 -
20/10:30pm - - - - - NW 24 28 13 15 1006.5 - -
20/10:00pm - - - - - NNW 26 28 14 15 1006.6 1006.6 -
20/09:30pm - - - - - NW 26 30 14 16 1006.5 - -
20/09:00pm - - - - - NW 26 28 14 15 1006.2 1006.1 -

Other formats

Comma delimited format used in spreadsheet applications
http://www.bom.gov.au/fwo/IDQ60801/IDQ60801.95288.axf

JavaScript Object Notation format (JSON) in row-major order
http://www.bom.gov.au/fwo/IDQ60801/IDQ60801.95288.json

Data quality

Most of these data are generated automatically and are frequently updated. Quality checks on data are not normally performed. It is possible for incorrect values to appear. Refer to information at About Latest Weather Observations and please check the disclaimer before using these data.